createdAt,value
2023-05-06T00:02:26.405Z,13.85
2023-05-06T00:04:54.509Z,13.81
2023-05-06T00:07:23.265Z,13.81
2023-05-06T00:09:51.477Z,13.76
2023-05-06T00:12:19.549Z,13.77
2023-05-06T00:14:47.625Z,13.70
2023-05-06T00:17:15.670Z,13.64
2023-05-06T00:19:45.321Z,13.58
2023-05-06T00:22:13.366Z,13.59
2023-05-06T00:24:41.436Z,13.54
2023-05-06T00:27:09.453Z,13.51
2023-05-06T00:29:37.350Z,13.46
2023-05-06T00:32:06.097Z,13.45
2023-05-06T00:34:34.156Z,13.41
2023-05-06T00:37:03.874Z,13.41
2023-05-06T00:39:32.012Z,13.36
2023-05-06T00:42:02.162Z,13.31
2023-05-06T00:44:30.702Z,13.31
2023-05-06T00:47:00.841Z,13.27
2023-05-06T00:49:29.140Z,13.27
2023-05-06T00:51:58.196Z,13.24
2023-05-06T00:54:29.732Z,13.21
2023-05-06T00:56:57.994Z,13.18
2023-05-06T00:59:26.051Z,13.14
2023-05-06T01:01:54.208Z,13.11
2023-05-06T01:04:24.135Z,13.14
2023-05-06T01:07:09.458Z,13.08
2023-05-06T01:09:44.102Z,13.04
2023-05-06T01:12:24.544Z,12.99
2023-05-06T01:15:23.067Z,12.94
2023-05-06T01:17:53.097Z,12.87
2023-05-06T01:20:23.102Z,12.86
2023-05-06T01:22:51.107Z,12.84
2023-05-06T01:25:21.225Z,12.83
2023-05-06T01:27:49.282Z,12.81
2023-05-06T01:30:19.235Z,12.81
2023-05-06T01:32:57.657Z,12.81
2023-05-06T01:35:32.758Z,12.82
2023-05-06T01:38:08.483Z,12.82
2023-05-06T01:40:38.373Z,12.82
2023-05-06T01:43:07.030Z,12.81
2023-05-06T01:45:37.399Z,12.77
2023-05-06T01:48:06.840Z,12.77
2023-05-06T01:50:35.873Z,12.77
2023-05-06T01:53:04.669Z,12.75
2023-05-06T01:55:32.682Z,12.73
2023-05-06T01:58:02.066Z,12.74
2023-05-06T02:00:29.993Z,12.72
2023-05-06T02:02:57.970Z,12.74
2023-05-06T02:05:26.848Z,12.71
2023-05-06T02:07:57.509Z,12.70
2023-05-06T02:10:25.582Z,12.73
2023-05-06T02:13:01.484Z,12.71
2023-05-06T02:15:29.923Z,12.75
2023-05-06T02:18:00.007Z,12.73
2023-05-06T02:20:28.124Z,12.70
2023-05-06T02:22:56.341Z,12.72
2023-05-06T02:25:24.509Z,12.72
2023-05-06T02:27:52.373Z,12.71
2023-05-06T02:30:21.673Z,12.67
2023-05-06T02:32:49.553Z,12.68
2023-05-06T02:35:17.406Z,12.68
2023-05-06T02:37:45.312Z,12.69
2023-05-06T02:40:13.621Z,12.72
2023-05-06T02:42:41.558Z,12.72
2023-05-06T02:45:10.662Z,12.67
2023-05-06T02:47:40.653Z,12.66
2023-05-06T02:50:08.951Z,12.63
2023-05-06T02:52:36.811Z,12.63
2023-05-06T02:55:04.990Z,12.64
2023-05-06T02:57:33.415Z,12.61
2023-05-06T03:00:01.285Z,12.63
2023-05-06T03:02:29.207Z,12.61
2023-05-06T03:04:58.456Z,12.59
2023-05-06T03:07:27.303Z,12.59
2023-05-06T03:09:55.781Z,12.60
2023-05-06T03:12:23.609Z,12.59
2023-05-06T03:14:51.480Z,12.56
2023-05-06T03:17:19.486Z,12.58
2023-05-06T03:19:47.318Z,12.57
2023-05-06T03:22:16.833Z,12.53
2023-05-06T03:24:46.634Z,12.53
2023-05-06T03:27:15.023Z,12.52
2023-05-06T03:29:45.114Z,12.52
2023-05-06T03:32:14.452Z,12.50
2023-05-06T03:34:45.123Z,12.47
2023-05-06T03:37:19.672Z,12.44
2023-05-06T03:39:52.740Z,12.40
2023-05-06T03:42:23.070Z,12.38
2023-05-06T03:44:51.796Z,12.38
2023-05-06T03:47:20.122Z,12.35
2023-05-06T03:49:48.062Z,12.33
2023-05-06T03:52:16.645Z,12.29
2023-05-06T03:54:45.947Z,12.26
2023-05-06T03:57:14.270Z,12.20
2023-05-06T03:59:42.236Z,12.15
2023-05-06T04:02:10.370Z,12.14
2023-05-06T04:04:39.460Z,12.10
2023-05-06T04:07:07.401Z,12.09
2023-05-06T04:09:35.302Z,12.05
2023-05-06T04:12:08.668Z,12.02
2023-05-06T04:14:37.550Z,11.99
2023-05-06T04:17:06.150Z,11.92
2023-05-06T04:19:34.079Z,11.89
2023-05-06T04:22:02.387Z,11.89
2023-05-06T04:24:31.327Z,11.84
2023-05-06T04:26:59.980Z,11.82
2023-05-06T04:29:30.524Z,11.79
2023-05-06T04:32:04.702Z,11.79
2023-05-06T04:34:36.208Z,11.78
2023-05-06T04:37:05.716Z,11.78
2023-05-06T04:39:57.054Z,11.75
2023-05-06T04:42:24.924Z,11.76
2023-05-06T04:45:05.584Z,11.78
2023-05-06T04:47:35.487Z,11.78
2023-05-06T04:50:04.433Z,11.79
2023-05-06T04:52:32.510Z,11.81
2023-05-06T04:55:00.809Z,11.80
2023-05-06T04:57:30.986Z,11.83
2023-05-06T04:59:59.046Z,11.85
2023-05-06T05:02:29.164Z,11.82
2023-05-06T05:04:57.535Z,11.85
2023-05-06T05:07:26.367Z,11.85
2023-05-06T05:09:54.378Z,11.90
2023-05-06T05:12:23.020Z,11.90
2023-05-06T05:14:52.577Z,11.91
2023-05-06T05:17:20.439Z,11.95
2023-05-06T05:19:52.796Z,11.97
2023-05-06T05:22:21.200Z,12.00
2023-05-06T05:24:49.124Z,12.00
2023-05-06T05:27:18.221Z,12.10
2023-05-06T05:29:46.929Z,12.09
2023-05-06T05:32:15.052Z,12.13
2023-05-06T05:34:43.598Z,12.10
2023-05-06T05:37:13.040Z,12.18
2023-05-06T05:39:41.038Z,12.26
2023-05-06T05:42:10.920Z,12.28
2023-05-06T05:44:41.489Z,12.32
2023-05-06T05:47:09.473Z,12.35
2023-05-06T05:49:38.737Z,12.41
2023-05-06T05:52:07.297Z,12.47
2023-05-06T05:54:36.646Z,12.55
2023-05-06T05:57:05.414Z,12.56
2023-05-06T05:59:33.890Z,12.63
2023-05-06T06:02:05.127Z,12.67
2023-05-06T06:04:33.343Z,12.75
2023-05-06T06:07:01.970Z,12.70
2023-05-06T06:09:32.277Z,12.82
2023-05-06T06:12:03.190Z,12.82
2023-05-06T06:14:32.025Z,12.95
2023-05-06T06:17:00.852Z,12.97
2023-05-06T06:19:28.827Z,13.09
2023-05-06T06:21:57.267Z,13.12
2023-05-06T06:24:25.788Z,13.18
2023-05-06T06:26:54.364Z,13.27
2023-05-06T06:29:23.588Z,13.33
2023-05-06T06:31:51.571Z,13.37
2023-05-06T06:34:19.702Z,13.49
2023-05-06T06:36:47.664Z,13.53
2023-05-06T06:39:15.542Z,13.59
2023-05-06T06:41:43.661Z,13.55
2023-05-06T06:44:11.608Z,13.67
2023-05-06T06:46:41.567Z,13.70
2023-05-06T06:49:09.514Z,13.75
2023-05-06T06:51:37.289Z,13.79
2023-05-06T06:54:05.145Z,13.89
2023-05-06T06:56:32.996Z,13.95
2023-05-06T06:59:00.957Z,13.95
2023-05-06T07:01:29.011Z,14.00
2023-05-06T07:03:58.272Z,14.07
2023-05-06T07:06:26.242Z,14.07
2023-05-06T07:08:54.136Z,14.12
2023-05-06T07:11:22.062Z,14.13
2023-05-06T07:13:49.888Z,14.27
2023-05-06T07:16:17.737Z,14.33
2023-05-06T07:18:45.684Z,14.44
2023-05-06T07:21:14.889Z,14.53
2023-05-06T07:23:42.699Z,14.58
2023-05-06T07:26:10.683Z,14.58
2023-05-06T07:28:38.555Z,14.59
2023-05-06T07:31:06.594Z,14.56
2023-05-06T07:33:34.432Z,14.67
2023-05-06T07:36:02.316Z,14.72
2023-05-06T07:38:31.655Z,14.77
2023-05-06T07:40:59.442Z,14.95
2023-05-06T07:43:27.257Z,15.06
2023-05-06T07:46:02.205Z,14.98
2023-05-06T07:48:30.248Z,15.07
2023-05-06T07:50:59.082Z,15.17
2023-05-06T07:53:27.381Z,15.05
2023-05-06T07:56:02.201Z,15.13
2023-05-06T07:58:32.030Z,15.15
2023-05-06T08:01:00.594Z,15.07
2023-05-06T08:03:28.704Z,15.15
2023-05-06T08:05:56.891Z,15.22
2023-05-06T08:08:27.725Z,15.28
2023-05-06T08:10:57.914Z,15.46
2023-05-06T08:13:26.352Z,15.57
2023-05-06T08:15:54.313Z,15.56
2023-05-06T08:18:23.179Z,15.48
2023-05-06T08:20:51.571Z,15.51
2023-05-06T08:23:19.367Z,15.57
2023-05-06T08:25:47.432Z,15.44
2023-05-06T08:28:16.778Z,15.48
2023-05-06T08:30:47.528Z,15.50
2023-05-06T08:33:15.579Z,15.35
2023-05-06T08:35:43.510Z,15.39
2023-05-06T08:38:11.378Z,15.51
2023-05-06T08:40:43.754Z,15.50
2023-05-06T08:43:14.554Z,15.48
2023-05-06T08:45:44.009Z,15.50
2023-05-06T08:48:12.032Z,15.61
2023-05-06T08:50:43.175Z,15.72
2023-05-06T08:53:12.394Z,15.83
2023-05-06T08:55:42.657Z,15.86
2023-05-06T08:58:12.812Z,15.98
2023-05-06T09:00:40.923Z,16.11
2023-05-06T09:03:10.232Z,16.28
2023-05-06T09:05:38.378Z,16.31
2023-05-06T09:08:06.724Z,16.35
2023-05-06T09:10:43.802Z,16.32
2023-05-06T09:13:14.209Z,16.34
2023-05-06T09:15:43.464Z,16.48
2023-05-06T09:18:13.090Z,16.54
2023-05-06T09:20:43.073Z,16.46
2023-05-06T09:23:12.325Z,16.46
2023-05-06T09:25:40.395Z,16.55
2023-05-06T09:28:10.224Z,16.68
2023-05-06T09:30:40.818Z,16.72
2023-05-06T09:33:08.973Z,16.60
2023-05-06T09:35:40.209Z,16.62
2023-05-06T09:38:08.802Z,16.70
2023-05-06T09:40:37.319Z,16.73
2023-05-06T09:43:06.150Z,16.75
2023-05-06T09:45:34.382Z,16.77
2023-05-06T09:48:02.464Z,16.75
2023-05-06T09:50:31.728Z,16.95
2023-05-06T09:53:03.666Z,16.79
2023-05-06T09:55:32.137Z,16.77
2023-05-06T09:58:02.498Z,16.89
2023-05-06T10:00:32.421Z,16.94
2023-05-06T10:03:00.743Z,16.89
2023-05-06T10:05:30.095Z,17.06
2023-05-06T10:07:59.237Z,17.13
2023-05-06T10:10:29.545Z,17.10
2023-05-06T10:12:58.028Z,17.10
2023-05-06T10:15:27.481Z,17.08
2023-05-06T10:17:56.463Z,17.10
2023-05-06T10:20:25.824Z,17.08
2023-05-06T10:23:04.512Z,17.20
2023-05-06T10:25:37.367Z,17.20
2023-05-06T10:28:07.623Z,17.35
2023-05-06T10:30:41.753Z,17.47
2023-05-06T10:33:11.388Z,17.49
2023-05-06T10:35:49.200Z,17.66
2023-05-06T10:38:23.460Z,17.62
2023-05-06T10:40:54.088Z,17.67
2023-05-06T10:43:25.032Z,17.73
2023-05-06T10:46:03.959Z,17.92
2023-05-06T10:48:32.743Z,18.06
2023-05-06T10:51:22.767Z,18.20
2023-05-06T10:54:04.049Z,18.23
2023-05-06T10:56:35.097Z,18.22
2023-05-06T10:59:07.911Z,18.32
2023-05-06T11:01:37.006Z,18.32
2023-05-06T11:04:09.727Z,18.29
2023-05-06T11:06:41.159Z,18.42
2023-05-06T11:09:17.843Z,18.50
2023-05-06T11:12:00.390Z,18.53
2023-05-06T11:14:30.647Z,18.64
2023-05-06T11:17:00.310Z,18.54
2023-05-06T11:19:30.240Z,18.76
2023-05-06T11:22:00.469Z,18.77
2023-05-06T11:24:29.427Z,18.68
2023-05-06T11:27:01.212Z,18.80
2023-05-06T11:29:29.140Z,18.82
2023-05-06T11:31:57.075Z,18.62
2023-05-06T11:34:27.274Z,18.67
2023-05-06T11:37:02.482Z,18.54
2023-05-06T11:39:38.732Z,18.52
2023-05-06T11:42:09.614Z,18.66
2023-05-06T11:44:39.756Z,18.68
2023-05-06T11:47:09.373Z,18.59
2023-05-06T11:49:38.838Z,18.41
2023-05-06T11:52:07.088Z,18.43
2023-05-06T11:54:36.768Z,18.42
2023-05-06T11:57:04.713Z,18.48
2023-05-06T11:59:35.029Z,18.46
2023-05-06T12:02:04.717Z,18.46
2023-05-06T12:04:39.793Z,18.34
2023-05-06T12:07:08.677Z,18.40
2023-05-06T12:09:37.238Z,18.45
2023-05-06T12:12:06.093Z,18.43
2023-05-06T12:14:36.461Z,18.44
2023-05-06T12:17:04.827Z,18.44
2023-05-06T12:19:33.478Z,18.43
2023-05-06T12:22:15.804Z,18.52
2023-05-06T12:24:43.721Z,18.53
2023-05-06T12:27:11.616Z,18.63
2023-05-06T12:29:40.893Z,18.61
2023-05-06T12:32:10.204Z,18.68
2023-05-06T12:34:39.667Z,18.83
2023-05-06T12:37:08.537Z,18.69
2023-05-06T12:39:37.062Z,18.78
2023-05-06T12:42:05.206Z,18.74
2023-05-06T12:44:37.953Z,18.93
2023-05-06T12:47:08.917Z,18.89
2023-05-06T12:49:50.230Z,18.88
2023-05-06T12:52:19.301Z,19.05
2023-05-06T12:54:48.063Z,18.92
2023-05-06T12:57:16.292Z,19.14
2023-05-06T12:59:45.665Z,19.15
2023-05-06T13:02:15.627Z,19.18
2023-05-06T13:04:44.314Z,19.30
2023-05-06T13:07:12.580Z,19.35
2023-05-06T13:09:40.573Z,19.44
2023-05-06T13:12:08.654Z,19.41
2023-05-06T13:14:39.250Z,19.44
2023-05-06T13:17:08.290Z,19.39
2023-05-06T13:19:37.696Z,19.33
2023-05-06T13:22:05.557Z,19.33
2023-05-06T13:24:33.370Z,19.31
2023-05-06T13:27:01.459Z,19.35
2023-05-06T13:29:30.474Z,19.34
2023-05-06T13:31:58.787Z,19.35
2023-05-06T13:34:26.774Z,19.35
2023-05-06T13:36:57.486Z,19.27
2023-05-06T13:39:26.049Z,19.16
2023-05-06T13:41:54.258Z,19.23
2023-05-06T13:44:22.635Z,19.28
2023-05-06T13:46:50.772Z,19.26
2023-05-06T13:49:20.510Z,19.36
2023-05-06T13:51:48.377Z,19.37
2023-05-06T13:54:17.636Z,19.38
2023-05-06T13:56:45.456Z,19.34
2023-05-06T13:59:14.045Z,19.35
2023-05-06T14:01:43.070Z,19.41
2023-05-06T14:04:11.065Z,19.32
2023-05-06T14:06:39.110Z,19.31
2023-05-06T14:09:06.976Z,19.28
2023-05-06T14:11:36.182Z,19.22
2023-05-06T14:14:04.474Z,19.27
2023-05-06T14:16:32.992Z,19.33
2023-05-06T14:19:01.141Z,19.43
2023-05-06T14:21:28.983Z,19.39
2023-05-06T14:23:56.900Z,19.42
2023-05-06T14:26:24.990Z,19.54
2023-05-06T14:28:54.188Z,19.60
2023-05-06T14:31:21.988Z,19.63
2023-05-06T14:33:49.855Z,19.67
2023-05-06T14:36:19.731Z,19.66
2023-05-06T14:38:47.514Z,19.65
2023-05-06T14:41:15.397Z,19.57
2023-05-06T14:43:43.262Z,19.63
2023-05-06T14:46:14.559Z,19.77
2023-05-06T14:48:43.260Z,19.73
2023-05-06T14:51:11.320Z,19.85
2023-05-06T14:53:39.425Z,19.88
2023-05-06T14:56:09.434Z,19.94
2023-05-06T14:58:37.348Z,20.00
2023-05-06T15:01:05.278Z,20.04
2023-05-06T15:03:36.148Z,20.03
2023-05-06T15:06:04.346Z,20.03
2023-05-06T15:08:32.310Z,20.09
2023-05-06T15:11:02.287Z,19.90
2023-05-06T15:13:31.599Z,20.02
2023-05-06T15:15:59.636Z,20.06
2023-05-06T15:18:27.511Z,20.10
2023-05-06T15:20:58.685Z,20.15
2023-05-06T15:23:26.637Z,20.09
2023-05-06T15:25:54.537Z,20.18
2023-05-06T15:28:24.410Z,20.12
2023-05-06T15:30:52.626Z,20.03
2023-05-06T15:33:20.620Z,20.04
2023-05-06T15:35:48.442Z,20.17
2023-05-06T15:38:17.732Z,20.15
2023-05-06T15:40:51.139Z,20.09
2023-05-06T15:43:23.759Z,20.08
2023-05-06T15:45:52.424Z,20.07
2023-05-06T15:48:20.473Z,20.05
2023-05-06T15:50:48.397Z,20.13
2023-05-06T15:53:17.941Z,20.10
2023-05-06T15:55:52.928Z,20.06
2023-05-06T15:58:25.349Z,20.10
2023-05-06T16:00:53.147Z,20.05
2023-05-06T16:03:21.228Z,20.04
2023-05-06T16:05:49.350Z,20.03
2023-05-06T16:08:18.646Z,19.95
2023-05-06T16:10:46.693Z,19.95
2023-05-06T16:13:14.567Z,19.93
2023-05-06T16:15:42.733Z,20.10
2023-05-06T16:18:10.812Z,20.08
2023-05-06T16:20:39.304Z,20.16
2023-05-06T16:23:07.525Z,20.07
2023-05-06T16:25:38.257Z,20.16
2023-05-06T16:28:06.558Z,20.14
2023-05-06T16:30:34.345Z,20.05
2023-05-06T16:33:02.232Z,20.07
2023-05-06T16:35:30.116Z,20.02
2023-05-06T16:37:57.915Z,20.04
2023-05-06T16:40:25.757Z,19.94
2023-05-06T16:42:55.209Z,20.01
2023-05-06T16:45:22.992Z,19.94
2023-05-06T16:47:50.928Z,19.94
2023-05-06T16:50:19.106Z,19.78
2023-05-06T16:52:46.932Z,19.81
2023-05-06T16:55:14.793Z,19.74
2023-05-06T16:57:42.619Z,19.67
2023-05-06T17:00:13.214Z,19.64
2023-05-06T17:02:41.614Z,19.63
2023-05-06T17:05:09.616Z,19.53
2023-05-06T17:07:37.442Z,19.52
2023-05-06T17:10:05.696Z,19.43
2023-05-06T17:12:33.753Z,19.36
2023-05-06T17:15:01.707Z,19.33
2023-05-06T17:17:31.148Z,19.27
2023-05-06T17:19:59.230Z,19.25
2023-05-06T17:22:27.131Z,19.19
2023-05-06T17:24:55.026Z,19.07
2023-05-06T17:27:22.882Z,19.10
2023-05-06T17:29:50.711Z,19.08
2023-05-06T17:32:19.759Z,18.97
2023-05-06T17:34:49.039Z,18.97
2023-05-06T17:37:16.915Z,18.92
2023-05-06T17:39:46.227Z,18.92
2023-05-06T17:42:14.194Z,18.89
2023-05-06T17:44:42.813Z,18.87
2023-05-06T17:47:11.029Z,18.78
2023-05-06T17:49:38.849Z,18.74
2023-05-06T17:52:08.014Z,18.73
2023-05-06T17:54:36.525Z,18.72
2023-05-06T17:57:04.602Z,18.66
2023-05-06T17:59:33.188Z,18.65
2023-05-06T18:02:01.577Z,18.60
2023-05-06T18:04:29.647Z,18.54
2023-05-06T18:06:57.440Z,18.50
2023-05-06T18:09:26.720Z,18.46
2023-05-06T18:11:55.321Z,18.42
2023-05-06T18:14:23.196Z,18.36
2023-05-06T18:16:51.003Z,18.32
2023-05-06T18:19:18.875Z,18.27
2023-05-06T18:21:46.970Z,18.22
2023-05-06T18:24:16.418Z,18.16
2023-05-06T18:26:46.553Z,18.11
2023-05-06T18:29:14.631Z,18.05
2023-05-06T18:31:42.938Z,18.05
2023-05-06T18:34:10.880Z,17.99
2023-05-06T18:36:39.189Z,17.90
2023-05-06T18:39:07.433Z,17.83
2023-05-06T18:41:35.462Z,17.77
2023-05-06T18:44:05.248Z,17.74
2023-05-06T18:46:33.740Z,17.69
2023-05-06T18:49:01.962Z,17.62
2023-05-06T18:51:30.037Z,17.55
2023-05-06T18:53:57.913Z,17.50
2023-05-06T18:56:25.925Z,17.43
2023-05-06T18:58:53.815Z,17.33
2023-05-06T19:01:23.085Z,17.30
2023-05-06T19:03:51.827Z,17.25
2023-05-06T19:06:19.844Z,17.22
2023-05-06T19:08:47.799Z,17.16
2023-05-06T19:11:18.163Z,17.13
2023-05-06T19:13:46.681Z,17.05
2023-05-06T19:16:15.173Z,17.00
2023-05-06T19:18:44.518Z,17.02
2023-05-06T19:21:13.020Z,16.96
2023-05-06T19:23:40.908Z,16.91
2023-05-06T19:26:10.949Z,16.86
2023-05-06T19:28:39.127Z,16.80
2023-05-06T19:31:10.709Z,16.78
2023-05-06T19:33:39.773Z,16.70
2023-05-06T19:36:09.330Z,16.67
2023-05-06T19:38:37.376Z,16.58
2023-05-06T19:41:06.182Z,16.56
2023-05-06T19:43:34.203Z,16.49
2023-05-06T19:46:02.074Z,16.47
2023-05-06T19:48:30.351Z,16.41
2023-05-06T19:50:58.219Z,16.36
2023-05-06T19:53:27.508Z,16.33
2023-05-06T19:55:57.858Z,16.27
2023-05-06T19:58:27.538Z,16.25
2023-05-06T20:00:55.879Z,16.19
2023-05-06T20:03:24.301Z,16.13
2023-05-06T20:05:52.417Z,16.11
2023-05-06T20:08:20.411Z,16.09
2023-05-06T20:10:50.553Z,15.99
2023-05-06T20:13:19.119Z,15.97
2023-05-06T20:15:50.227Z,15.96
2023-05-06T20:18:18.565Z,15.98
2023-05-06T20:20:47.426Z,15.93
2023-05-06T20:23:15.437Z,15.91
2023-05-06T20:25:43.491Z,15.89
2023-05-06T20:28:13.394Z,15.86
2023-05-06T20:30:41.767Z,15.83
2023-05-06T20:33:09.814Z,15.79
2023-05-06T20:35:40.485Z,15.74
2023-05-06T20:38:09.366Z,15.67
2023-05-06T20:40:37.464Z,15.63
2023-05-06T20:43:05.403Z,15.53
2023-05-06T20:45:34.706Z,15.55
2023-05-06T20:48:02.644Z,15.49
2023-05-06T20:50:30.891Z,15.40
2023-05-06T20:53:04.872Z,15.39
2023-05-06T20:55:33.925Z,15.34
2023-05-06T20:58:01.857Z,15.28
2023-05-06T21:00:32.587Z,15.21
2023-05-06T21:03:02.354Z,15.18
2023-05-06T21:05:33.752Z,15.13
2023-05-06T21:08:02.420Z,15.04
2023-05-06T21:10:30.406Z,14.99
2023-05-06T21:12:58.326Z,14.93
2023-05-06T21:15:26.374Z,14.92
2023-05-06T21:17:54.482Z,14.90
2023-05-06T21:20:23.894Z,14.87
2023-05-06T21:22:52.949Z,14.89
2023-05-06T21:25:21.357Z,14.84
2023-05-06T21:27:49.802Z,14.72
2023-05-06T21:30:18.053Z,14.70
2023-05-06T21:32:46.595Z,14.67
2023-05-06T21:35:15.178Z,14.61
2023-05-06T21:37:47.845Z,14.52
2023-05-06T21:40:16.912Z,14.53
2023-05-06T21:42:45.208Z,14.51
2023-05-06T21:45:16.499Z,14.46
2023-05-06T21:47:44.974Z,14.44
2023-05-06T21:50:15.167Z,14.40
2023-05-06T21:52:44.721Z,14.34
2023-05-06T21:55:12.906Z,14.29
2023-05-06T21:57:41.189Z,14.25
2023-05-06T22:00:12.266Z,14.27
2023-05-06T22:02:41.243Z,14.23
2023-05-06T22:05:09.733Z,14.17
2023-05-06T22:07:37.936Z,14.16
2023-05-06T22:10:08.495Z,14.12
2023-05-06T22:12:37.419Z,14.12
2023-05-06T22:15:07.088Z,14.09
2023-05-06T22:17:35.118Z,14.03
2023-05-06T22:20:04.321Z,13.99
2023-05-06T22:22:32.683Z,14.00
2023-05-06T22:25:01.703Z,13.94
2023-05-06T22:27:31.252Z,13.92
2023-05-06T22:29:59.250Z,13.88
2023-05-06T22:32:27.375Z,13.84
2023-05-06T22:34:55.335Z,13.81
2023-05-06T22:37:23.416Z,13.75
2023-05-06T22:39:53.043Z,13.74
2023-05-06T22:42:21.608Z,13.69
2023-05-06T22:44:51.177Z,13.68
2023-05-06T22:47:20.093Z,13.62
2023-05-06T22:49:48.212Z,13.55
2023-05-06T22:52:17.020Z,13.54
2023-05-06T22:54:45.167Z,13.51
2023-05-06T22:57:13.339Z,13.46
2023-05-06T22:59:41.423Z,13.44
2023-05-06T23:02:10.810Z,13.40
2023-05-06T23:04:40.484Z,13.41
2023-05-06T23:07:08.634Z,13.40
2023-05-06T23:09:36.719Z,13.35
2023-05-06T23:12:05.173Z,13.29
2023-05-06T23:14:33.221Z,13.28
2023-05-06T23:17:01.311Z,13.28
2023-05-06T23:19:30.828Z,13.26
2023-05-06T23:21:59.053Z,13.26
2023-05-06T23:24:27.107Z,13.25
2023-05-06T23:26:55.102Z,13.21
2023-05-06T23:29:23.135Z,13.19
2023-05-06T23:31:51.218Z,13.15
2023-05-06T23:34:19.259Z,13.17
2023-05-06T23:36:48.728Z,13.14
2023-05-06T23:39:17.608Z,13.11
2023-05-06T23:41:45.663Z,13.07
2023-05-06T23:44:13.721Z,13.05
2023-05-06T23:46:41.880Z,13.05
2023-05-06T23:49:10.387Z,12.99
2023-05-06T23:51:38.401Z,12.97
2023-05-06T23:54:07.970Z,12.96
2023-05-06T23:56:36.103Z,12.92
2023-05-06T23:59:04.144Z,12.93
